Time;durP1;ratioP1;P1;durP2;ratioP2;P2;SDS_P1;SDS_P2;PMS_P1;PMS_P2;Temp;Humidity;BMP_temperature;BMP_pressure;BME280_temperature;BME280_humidity;BME280_pressure;Samples;Min_cycle;Max_cycle;Signal;HPM_P1;HPM_P2
2023/11/12 00:00:49;;;;;;;75.90;46.90;;;;;;;7.19;89.02;98706.61;102192;1276;138433;-81
2023/11/12 00:03:39;;;;;;;74.10;44.90;;;;;;;7.21;89.20;98710.55;101894;1282;97883;-81
2023/11/12 00:06:11;;;;;;;70.70;45.10;;;;;;;7.22;89.24;98713.77;101693;1280;138498;-80
2023/11/12 00:08:40;;;;;;;69.10;44.90;;;;;;;7.25;89.38;98709.51;101766;1282;108790;-80
2023/11/12 00:11:08;;;;;;;73.90;47.80;;;;;;;7.25;89.22;98707.77;102027;1277;98390;-80
2023/11/12 00:13:43;;;;;;;74.60;47.40;;;;;;;7.23;89.16;98710.60;101962;1282;138206;-80
2023/11/12 00:16:10;;;;;;;70.70;45.50;;;;;;;7.20;89.40;98712.16;102013;1277;97620;-80
2023/11/12 00:18:45;;;;;;;71.30;43.40;;;;;;;7.19;89.24;98708.56;101666;1280;138570;-80
2023/11/12 00:21:15;;;;;;;76.20;46.20;;;;;;;7.16;89.42;98705.02;101786;1276;106982;-79
2023/11/12 00:23:48;;;;;;;70.00;45.70;;;;;;;7.21;89.64;98704.83;101679;1277;138908;-81
2023/11/12 00:26:19;;;;;;;73.10;45.80;;;;;;;7.26;89.64;98704.11;102091;1276;108180;-80
2023/11/12 00:28:49;;;;;;;77.30;43.80;;;;;;;7.26;89.48;98711.70;102273;1276;97751;-81
2023/11/12 00:31:24;;;;;;;70.10;43.40;;;;;;;7.25;89.53;98710.35;101687;1277;138530;-80
2023/11/12 00:33:54;;;;;;;71.70;45.40;;;;;;;7.28;89.56;98710.05;101882;1280;106500;-80
2023/11/12 00:36:24;;;;;;;74.80;43.60;;;;;;;7.31;89.61;98710.13;101626;1277;210741;-80
2023/11/12 00:39:12;;;;;;;76.70;47.00;;;;;;;7.30;89.32;98707.55;101742;1277;107614;-81
2023/11/12 00:41:42;;;;;;;78.10;48.20;;;;;;;7.30;89.32;98711.37;101730;1280;97856;-80
2023/11/12 00:44:12;;;;;;;73.90;46.00;;;;;;;7.26;89.39;98712.03;102168;1280;110945;-80
2023/11/12 00:46:46;;;;;;;73.40;45.60;;;;;;;7.23;89.44;98713.55;101703;1276;108239;-80
2023/11/12 00:49:16;;;;;;;75.40;45.80;;;;;;;7.21;89.61;98713.81;101651;1280;139230;-80
2023/11/12 00:51:47;;;;;;;74.70;44.00;;;;;;;7.21;89.68;98710.02;101717;1277;108372;-80
2023/11/12 00:54:15;;;;;;;69.40;42.90;;;;;;;7.19;89.68;98708.71;101603;1280;138882;-79
2023/11/12 00:56:44;;;;;;;72.30;43.80;;;;;;;7.18;89.80;98711.02;101529;1280;111941;-80
2023/11/12 00:59:14;;;;;;;68.10;44.20;;;;;;;7.19;89.78;98714.09;101678;1277;108453;-80
2023/11/12 01:01:46;;;;;;;75.20;46.60;;;;;;;7.17;89.73;98712.61;101625;1280;138380;-80
2023/11/12 01:04:16;;;;;;;77.10;46.50;;;;;;;7.11;89.60;98711.99;101499;1277;108603;-81
2023/11/12 01:07:04;;;;;;;83.40;47.00;;;;;;;7.06;89.83;98714.97;101657;1280;138590;-81
2023/11/12 01:09:34;;;;;;;82.10;45.90;;;;;;;7.00;89.93;98716.27;101742;1283;112322;-82
2023/11/12 01:12:23;;;;;;;71.20;43.00;;;;;;;6.98;90.26;98721.50;102117;1279;139002;-81
2023/11/12 01:14:59;;;;;;;67.80;42.70;;;;;;;6.97;90.31;98717.58;101906;1279;97959;-81
2023/11/12 01:17:37;;;;;;;72.90;43.50;;;;;;;6.98;90.46;98718.42;101743;1276;107896;-81
2023/11/12 01:20:06;;;;;;;70.60;42.80;;;;;;;7.00;90.73;98716.79;101709;1280;138250;-81
2023/11/12 01:22:36;;;;;;;79.40;44.00;;;;;;;7.04;90.75;98715.95;101679;1277;112855;-81
2023/11/12 01:25:08;;;;;;;76.40;46.30;;;;;;;7.06;90.70;98717.23;101584;1276;137948;-81
2023/11/12 01:27:46;;;;;;;70.40;44.40;;;;;;;7.03;90.43;98717.00;101810;1276;97910;-81
2023/11/12 01:30:25;;;;;;;75.90;47.30;;;;;;;7.04;90.69;98717.15;101554;1280;137888;-80
2023/11/12 01:33:02;;;;;;;73.00;43.20;;;;;;;7.05;90.75;98719.34;101801;1277;97832;-80
2023/11/12 01:35:30;;;;;;;67.50;42.60;;;;;;;7.06;90.78;98715.52;101674;1282;111969;-81
2023/11/12 01:37:59;;;;;;;65.70;40.50;;;;;;;7.04;90.56;98720.26;101650;1276;138405;-81
2023/11/12 01:40:31;;;;;;;65.30;40.80;;;;;;;7.04;90.52;98723.55;101780;1276;97875;-82
2023/11/12 01:43:08;;;;;;;65.50;40.60;;;;;;;7.02;90.62;98718.78;102024;1277;138597;-83
2023/11/12 01:45:38;;;;;;;71.40;44.20;;;;;;;7.02;90.48;98722.95;101794;1280;97995;-82
2023/11/12 01:48:10;;;;;;;69.30;43.10;;;;;;;7.02;90.45;98725.51;101830;1279;138542;-82
2023/11/12 01:50:38;;;;;;;69.70;44.30;;;;;;;7.01;90.33;98724.02;101785;1282;107652;-81
2023/11/12 01:53:16;;;;;;;74.70;45.50;;;;;;;7.00;90.46;98725.92;101758;1277;97924;-80
2023/11/12 01:55:45;;;;;;;66.80;41.90;;;;;;;6.97;90.55;98725.20;101630;1280;138332;-80
2023/11/12 01:58:14;;;;;;;70.80;42.10;;;;;;;6.93;90.37;98729.01;101889;1282;97761;-80
2023/11/12 02:00:45;;;;;;;66.50;41.00;;;;;;;6.91;90.54;98729.09;101512;1280;138624;-81
2023/11/12 02:03:33;;;;;;;67.40;40.50;;;;;;;6.90;90.66;98737.08;101738;1280;108563;-79
2023/11/12 02:06:05;;;;;;;68.00;39.40;;;;;;;6.89;90.59;98735.91;102013;1277;139346;-79
2023/11/12 02:08:40;;;;;;;61.40;37.90;;;;;;;6.87;90.62;98734.45;101633;1283;107699;-81
2023/11/12 02:11:14;;;;;;;56.30;37.30;;;;;;;6.87;90.58;98733.27;101721;1279;97966;-81
2023/11/12 02:13:44;;;;;;;63.50;40.60;;;;;;;6.87;90.67;98733.08;101919;1277;137686;-82
2023/11/12 02:16:11;;;;;;;66.60;41.30;;;;;;;6.90;90.67;98732.27;101741;1277;107066;-82
2023/11/12 02:18:49;;;;;;;66.20;41.40;;;;;;;6.92;90.74;98734.23;101594;1277;138506;-83
2023/11/12 02:21:25;;;;;;;66.90;41.40;;;;;;;6.91;90.49;98737.02;101583;1279;107451;-82
2023/11/12 02:23:55;;;;;;;63.10;39.00;;;;;;;6.88;90.49;98733.91;101581;1282;138066;-82
2023/11/12 02:26:22;;;;;;;60.30;37.90;;;;;;;6.85;90.45;98733.52;101855;1277;111287;-83
2023/11/12 02:29:02;;;;;;;57.60;36.20;;;;;;;6.84;90.39;98733.38;101778;1280;108820;-83
2023/11/12 02:31:50;;;;;;;60.30;37.10;;;;;;;6.85;90.65;98732.66;101612;1276;138683;-82
2023/11/12 02:34:37;;;;;;;60.40;39.30;;;;;;;6.84;90.55;98737.49;101756;1280;108082;-84
2023/11/12 02:37:25;;;;;;;65.70;39.50;;;;;;;6.84;90.52;98737.66;101635;1280;137943;-83
2023/11/12 02:40:15;;;;;;;67.30;39.60;;;;;;;6.85;90.51;98739.02;101826;1280;110867;-83
2023/11/12 02:43:03;;;;;;;62.60;39.50;;;;;;;6.82;90.33;98744.30;101461;1277;138071;-82
2023/11/12 02:45:44;;;;;;;59.90;37.60;;;;;;;6.78;90.22;98739.48;101498;1277;97883;-82
2023/11/12 02:48:23;;;;;;;56.10;36.00;;;;;;;6.75;90.21;98737.02;101549;1282;138593;-81
2023/11/12 02:51:11;;;;;;;56.50;36.60;;;;;;;6.73;90.16;98736.07;101732;1277;97937;-81
2023/11/12 02:53:58;;;;;;;53.40;35.00;;;;;;;6.73;90.29;98737.60;101649;1276;138555;-81
2023/11/12 02:56:35;;;;;;;59.80;35.90;;;;;;;6.73;90.25;98736.08;101445;1282;108116;-80
2023/11/12 02:59:21;;;;;;;61.00;35.20;;;;;;;6.77;90.13;98739.15;101775;1279;97950;-80
2023/11/12 03:01:50;;;;;;;56.60;37.40;;;;;;;6.77;90.12;98743.13;101310;1274;137872;-73
2023/11/12 03:04:18;;;;;;;59.30;38.30;;;;;;;6.81;89.95;98745.73;102255;1276;97830;-73
2023/11/12 03:06:45;;;;;;;59.00;36.90;;;;;;;6.80;90.00;98745.07;101598;1282;138663;-74
2023/11/12 03:09:12;;;;;;;58.40;36.90;;;;;;;6.78;89.55;98746.20;101649;1276;107869;-74
2023/11/12 03:11:39;;;;;;;53.50;32.10;;;;;;;6.74;89.65;98744.45;102353;1280;96417;-73
2023/11/12 03:14:07;;;;;;;51.60;33.00;;;;;;;6.72;89.48;98741.98;101573;1276;139318;-74
2023/11/12 03:16:34;;;;;;;52.90;33.10;;;;;;;6.73;89.28;98740.56;101716;1282;97937;-75
2023/11/12 03:19:01;;;;;;;49.60;31.70;;;;;;;6.74;89.24;98740.48;102135;1279;138614;-74
2023/11/12 03:21:29;;;;;;;53.80;32.40;;;;;;;6.75;89.19;98742.70;102275;1276;107574;-74
2023/11/12 03:23:57;;;;;;;50.70;32.10;;;;;;;6.75;89.07;98743.89;102028;1276;138335;-74
2023/11/12 03:26:25;;;;;;;52.00;33.30;;;;;;;6.74;88.91;98743.27;101950;1280;108454;-74
2023/11/12 03:28:52;;;;;;;49.70;31.70;;;;;;;6.72;88.88;98745.10;102315;1280;97726;-74
2023/11/12 03:31:19;;;;;;;51.00;32.40;;;;;;;6.69;88.73;98747.98;102068;1276;137859;-74
2023/11/12 03:33:46;;;;;;;51.80;31.60;;;;;;;6.65;88.73;98748.46;102603;1279;107487;-75
2023/11/12 03:36:15;;;;;;;49.50;31.30;;;;;;;6.60;88.66;98749.14;101625;1282;139903;-74
2023/11/12 03:38:42;;;;;;;46.00;29.50;;;;;;;6.58;88.81;98748.04;101665;1282;109708;-73
2023/11/12 03:41:13;;;;;;;47.50;30.40;;;;;;;6.56;88.84;98745.19;101780;1279;97826;-74
2023/11/12 03:43:41;;;;;;;48.40;30.00;;;;;;;6.55;89.00;98744.89;101798;1276;138501;-73
2023/11/12 03:46:08;;;;;;;49.90;32.30;;;;;;;6.55;89.09;98744.89;101928;1276;108250;-72
2023/11/12 03:48:35;;;;;;;53.20;32.10;;;;;;;6.57;89.04;98749.28;102154;1278;138303;-73
2023/11/12 03:51:03;;;;;;;53.70;33.30;;;;;;;6.56;89.14;98751.41;102131;1276;107827;-73
2023/11/12 03:53:30;;;;;;;53.60;33.40;;;;;;;6.54;89.08;98749.95;101565;1276;97835;-75
2023/11/12 03:55:57;;;;;;;50.20;31.20;;;;;;;6.46;88.88;98745.75;101514;1276;137910;-74
2023/11/12 03:58:24;;;;;;;49.30;30.30;;;;;;;6.41;89.00;98743.05;101595;1279;109436;-75
2023/11/12 04:00:51;;;;;;;51.50;29.50;;;;;;;6.39;89.38;98744.67;101483;1276;138670;-75
2023/11/12 04:03:18;;;;;;;46.80;29.40;;;;;;;6.40;89.54;98746.02;101682;1279;110723;-75
2023/11/12 04:05:46;;;;;;;50.00;30.50;;;;;;;6.37;89.27;98744.40;101728;1279;97825;-75
2023/11/12 04:08:14;;;;;;;50.90;30.60;;;;;;;6.35;89.40;98748.27;102171;1279;111593;-76
2023/11/12 04:10:41;;;;;;;51.50;30.00;;;;;;;6.35;89.47;98749.46;101772;1282;107810;-74
2023/11/12 04:13:08;;;;;;;51.00;30.60;;;;;;;6.34;89.47;98746.08;101468;1282;140005;-74
2023/11/12 04:15:35;;;;;;;49.70;30.70;;;;;;;6.32;89.47;98742.51;102308;1278;107804;-74
2023/11/12 04:18:02;;;;;;;45.30;29.50;;;;;;;6.35;89.69;98751.73;101370;1280;138369;-73
2023/11/12 04:20:32;;;;;;;54.20;32.00;;;;;;;6.37;89.73;98750.77;102385;1281;111183;-73
2023/11/12 04:22:59;;;;;;;50.10;30.70;;;;;;;6.37;89.50;98753.02;102088;1280;106753;-74
2023/11/12 04:25:27;;;;;;;52.60;31.30;;;;;;;6.36;89.56;98756.36;101517;1282;138730;-74
2023/11/12 04:27:54;;;;;;;45.70;27.40;;;;;;;6.33;89.60;98753.89;101525;1280;108969;-75
2023/11/12 04:30:21;;;;;;;47.50;28.30;;;;;;;6.29;89.35;98761.64;101455;1279;138871;-72
2023/11/12 04:32:48;;;;;;;44.70;27.40;;;;;;;6.26;89.59;98763.97;101950;1277;111401;-74
2023/11/12 04:35:19;;;;;;;47.20;27.70;;;;;;;6.24;89.71;98763.54;102407;1281;107175;-73
2023/11/12 04:37:46;;;;;;;50.10;28.00;;;;;;;6.23;89.89;98760.80;102023;1280;139862;-74
2023/11/12 04:40:16;;;;;;;46.40;27.90;;;;;;;6.22;89.90;98766.54;101847;1281;108660;-74
2023/11/12 04:42:43;;;;;;;41.50;26.70;;;;;;;6.25;89.98;98766.44;101424;1280;138742;-74
2023/11/12 04:45:12;;;;;;;44.50;26.60;;;;;;;6.29;90.21;98770.41;101132;1280;1002918;-75
2023/11/12 04:47:39;;;;;;;42.80;27.00;;;;;;;6.33;90.07;98769.08;101993;1276;108421;-74
2023/11/12 04:50:08;;;;;;;45.50;28.90;;;;;;;6.37;90.07;98767.52;101929;1282;137690;-75
2023/11/12 04:52:34;;;;;;;46.90;27.70;;;;;;;6.41;90.09;98768.23;102721;1279;108095;-75
2023/11/12 04:55:01;;;;;;;45.20;28.70;;;;;;;6.44;90.04;98769.29;101501;1280;138363;-74
2023/11/12 04:57:28;;;;;;;41.60;26.20;;;;;;;6.43;90.05;98770.36;101950;1280;112908;-73
2023/11/12 04:59:55;;;;;;;44.90;25.60;;;;;;;6.43;89.93;98770.38;101766;1278;138831;-74
2023/11/12 05:02:23;;;;;;;42.40;26.40;;;;;;;6.44;89.76;98772.59;101570;1279;98399;-74
2023/11/12 05:04:50;;;;;;;42.70;26.30;;;;;;;6.44;89.66;98772.44;101914;1282;109587;-74
2023/11/12 05:07:17;;;;;;;40.10;24.70;;;;;;;6.43;89.53;98773.32;101995;1282;139986;-74
2023/11/12 05:09:45;;;;;;;43.50;27.20;;;;;;;6.46;89.95;98769.23;101844;1282;110843;-74
2023/11/12 05:12:15;;;;;;;42.60;26.90;;;;;;;6.49;89.74;98770.69;101506;1283;138792;-73
2023/11/12 05:14:42;;;;;;;41.10;26.40;;;;;;;6.47;89.43;98775.93;101579;1278;98513;-73
2023/11/12 05:17:09;;;;;;;38.10;24.60;;;;;;;6.45;89.60;98777.55;101580;1282;107614;-75
2023/11/12 05:19:36;;;;;;;39.00;24.40;;;;;;;6.43;89.54;98780.91;101497;1279;138803;-75
2023/11/12 05:22:03;;;;;;;40.90;25.10;;;;;;;6.43;89.51;98785.42;101809;1279;111287;-75
2023/11/12 05:24:30;;;;;;;39.30;23.70;;;;;;;6.45;89.77;98785.69;101743;1279;138675;-75
2023/11/12 05:26:57;;;;;;;40.30;25.10;;;;;;;6.49;89.60;98790.02;101777;1282;98326;-75
2023/11/12 05:29:24;;;;;;;40.00;25.70;;;;;;;6.51;89.46;98790.66;101619;1279;107980;-75
2023/11/12 05:31:52;;;;;;;40.90;26.10;;;;;;;6.52;89.37;98790.10;101648;1282;138810;-75
2023/11/12 05:34:19;;;;;;;42.50;25.50;;;;;;;6.54;89.56;98796.58;102092;1279;110541;-75
2023/11/12 05:36:46;;;;;;;40.20;25.40;;;;;;;6.55;89.53;98798.78;101529;1280;137873;-74
2023/11/12 05:39:15;;;;;;;40.90;25.50;;;;;;;6.56;89.52;98798.89;102127;1282;97038;-76
2023/11/12 05:41:43;;;;;;;40.40;25.60;;;;;;;6.55;89.28;98804.27;101564;1282;108672;-76
2023/11/12 05:44:10;;;;;;;38.60;24.70;;;;;;;6.53;89.19;98806.46;101501;1283;97896;-74
2023/11/12 05:46:38;;;;;;;42.50;25.40;;;;;;;6.53;89.33;98809.58;101789;1282;112153;-75
2023/11/12 05:49:05;;;;;;;43.80;25.60;;;;;;;6.54;89.27;98808.84;102156;1279;137956;-74
2023/11/12 05:51:32;;;;;;;44.40;26.20;;;;;;;6.55;89.36;98814.64;101805;1282;98008;-75
2023/11/12 05:53:59;;;;;;;45.60;27.60;;;;;;;6.54;89.23;98816.92;101423;1280;138698;-74
2023/11/12 05:56:27;;;;;;;43.50;26.50;;;;;;;6.52;89.18;98824.44;101703;1281;97707;-74
2023/11/12 05:58:54;;;;;;;42.00;25.80;;;;;;;6.47;89.23;98821.52;102056;1279;110507;-74
2023/11/12 06:01:21;;;;;;;41.80;26.20;;;;;;;6.45;89.34;98824.34;101929;1280;138804;-74
2023/11/12 06:03:48;;;;;;;39.50;25.20;;;;;;;6.43;89.45;98825.81;101633;1280;97837;-74
2023/11/12 06:06:16;;;;;;;37.10;24.30;;;;;;;6.44;89.57;98828.20;101494;1283;138637;-75
2023/11/12 06:08:43;;;;;;;38.50;24.50;;;;;;;6.45;89.49;98829.21;101696;1279;97867;-74
2023/11/12 06:11:11;;;;;;;37.20;24.60;;;;;;;6.48;89.64;98829.27;101935;1280;113781;-74
2023/11/12 06:13:39;;;;;;;42.50;25.80;;;;;;;6.54;89.57;98832.46;101555;1282;138882;-74
2023/11/12 06:16:07;;;;;;;43.30;26.40;;;;;;;6.58;89.45;98835.23;102189;1276;97826;-74
2023/11/12 06:18:34;;;;;;;42.70;26.00;;;;;;;6.57;89.12;98840.13;102072;1279;138768;-74
2023/11/12 06:21:02;;;;;;;41.90;25.50;;;;;;;6.55;89.01;98839.34;102285;1278;97861;-75
2023/11/12 06:23:29;;;;;;;39.80;24.40;;;;;;;6.52;89.11;98837.92;101579;1279;113327;-75
2023/11/12 06:25:56;;;;;;;37.60;24.10;;;;;;;6.48;88.87;98837.88;101445;1279;139097;-74
2023/11/12 06:28:24;;;;;;;37.70;23.50;;;;;;;6.46;88.99;98833.48;101876;1279;97819;-74
2023/11/12 06:30:53;;;;;;;37.90;23.60;;;;;;;6.43;89.06;98836.89;101635;1277;138697;-74
2023/11/12 06:33:21;;;;;;;38.70;23.00;;;;;;;6.43;89.12;98839.45;102620;1277;95808;-74
2023/11/12 06:35:48;;;;;;;40.60;25.60;;;;;;;6.47;89.36;98838.63;101759;1282;112193;-74
2023/11/12 06:38:15;;;;;;;36.90;24.40;;;;;;;6.52;89.30;98840.86;101630;1279;108086;-73
2023/11/12 06:40:43;;;;;;;40.10;25.30;;;;;;;6.56;89.16;98843.27;101529;1282;97893;-72
2023/11/12 06:43:10;;;;;;;39.80;24.40;;;;;;;6.59;89.30;98848.48;102131;1276;138124;-74
2023/11/12 06:45:37;;;;;;;42.80;24.30;;;;;;;6.62;89.12;98845.45;102218;1279;97604;-74
2023/11/12 06:48:04;;;;;;;37.80;23.80;;;;;;;6.64;88.97;98842.26;102697;1279;139839;-73
2023/11/12 06:50:32;;;;;;;35.60;22.70;;;;;;;6.69;88.84;98845.55;101772;1280;107477;-73
2023/11/12 06:52:59;;;;;;;35.40;23.80;;;;;;;6.73;88.68;98843.67;101709;1282;97821;-74
2023/11/12 06:55:28;;;;;;;39.00;24.60;;;;;;;6.76;88.60;98845.80;101600;1279;138341;-74
2023/11/12 06:57:55;;;;;;;39.00;25.50;;;;;;;6.82;88.43;98838.84;102806;1279;96060;-74
2023/11/12 07:00:22;;;;;;;39.40;25.10;;;;;;;6.89;88.27;98843.89;102164;1278;138488;-74
2023/11/12 07:02:50;;;;;;;41.30;25.80;;;;;;;6.93;87.95;98843.02;101990;1282;106940;-75
2023/11/12 07:05:17;;;;;;;42.80;26.50;;;;;;;6.99;87.89;98847.11;102030;1279;96970;-76
2023/11/12 07:07:44;;;;;;;35.60;23.20;;;;;;;7.01;87.76;98852.95;102506;1280;138498;-73
2023/11/12 07:10:12;;;;;;;37.50;24.00;;;;;;;7.04;87.54;98848.33;102758;1279;97004;-73
2023/11/12 07:12:39;;;;;;;37.80;22.70;;;;;;;7.09;87.63;98850.54;102272;1279;138595;-73
2023/11/12 07:15:09;;;;;;;34.70;21.60;;;;;;;7.14;87.37;98849.10;102086;1281;107531;-73
2023/11/12 07:17:36;;;;;;;34.00;22.60;;;;;;;7.20;87.23;98849.38;102627;1280;96160;-75
2023/11/12 07:20:05;;;;;;;31.70;22.00;;;;;;;7.28;86.68;98849.55;102164;1279;137716;-73
2023/11/12 07:22:35;;;;;;;31.00;20.40;;;;;;;7.28;86.43;98859.60;102108;1282;98091;-72
2023/11/12 07:25:03;;;;;;;32.70;21.90;;;;;;;7.28;86.19;98859.41;102445;1279;139318;-73
2023/11/12 07:27:31;;;;;;;31.80;21.60;;;;;;;7.22;85.81;98857.08;102101;1280;108746;-74
2023/11/12 07:29:59;;;;;;;31.90;20.70;;;;;;;7.23;85.85;98862.93;101714;1280;138295;-73
2023/11/12 07:32:27;;;;;;;31.40;20.00;;;;;;;7.20;85.71;98864.94;101762;1280;108091;-74
2023/11/12 07:34:54;;;;;;;29.00;19.30;;;;;;;7.15;85.25;98863.75;101639;1280;97937;-73
2023/11/12 07:37:21;;;;;;;25.00;18.30;;;;;;;7.07;85.27;98866.66;101285;1282;138488;-72
2023/11/12 07:39:48;;;;;;;26.00;18.20;;;;;;;7.04;85.25;98870.10;102155;1278;107392;-72
2023/11/12 07:42:15;;;;;;;28.90;19.20;;;;;;;6.97;85.01;98875.35;101500;1278;139200;-73
2023/11/12 07:44:44;;;;;;;27.40;19.10;;;;;;;6.92;84.95;98875.59;101265;1282;106640;-72
2023/11/12 07:47:11;;;;;;;27.90;19.10;;;;;;;6.88;84.90;98877.11;101577;1279;98236;-72
2023/11/12 07:49:38;;;;;;;27.90;19.60;;;;;;;6.84;84.88;98882.45;101949;1280;139027;-72
2023/11/12 07:52:06;;;;;;;27.00;19.10;;;;;;;6.76;84.89;98886.05;102692;1279;107038;-71
2023/11/12 07:54:33;;;;;;;36.80;20.00;;;;;;;6.66;85.03;98890.40;101867;1282;137767;-72
2023/11/12 07:57:00;;;;;;;23.20;15.90;;;;;;;6.64;85.25;98898.92;101652;1282;108075;-72
2023/11/12 07:59:27;;;;;;;22.40;15.50;;;;;;;6.61;85.23;98901.78;102033;1282;97840;-73
2023/11/12 08:01:54;;;;;;;21.40;15.30;;;;;;;6.59;84.99;98905.16;102624;1280;139341;-73
2023/11/12 08:04:22;;;;;;;22.70;15.60;;;;;;;6.59;84.96;98907.77;101635;1284;107753;-72
2023/11/12 08:06:50;;;;;;;23.80;16.70;;;;;;;6.57;84.89;98910.76;102221;1282;290546;-72
2023/11/12 08:09:17;;;;;;;21.70;16.40;;;;;;;6.62;85.19;98912.46;101540;1280;108418;-71
2023/11/12 08:11:44;;;;;;;21.70;16.10;;;;;;;6.67;85.17;98913.50;101525;1293;97925;-72
2023/11/12 08:14:13;;;;;;;21.70;15.90;;;;;;;6.75;84.81;98913.73;101486;1282;139076;-72
2023/11/12 08:16:41;;;;;;;20.90;15.40;;;;;;;6.80;84.85;98916.45;101493;1282;108562;-72
2023/11/12 08:19:08;;;;;;;20.40;15.20;;;;;;;6.85;84.40;98913.52;101419;1280;140023;-71
2023/11/12 08:21:35;;;;;;;21.20;14.60;;;;;;;6.88;83.75;98916.16;101485;1283;108282;-72
2023/11/12 08:24:02;;;;;;;21.70;15.60;;;;;;;6.86;83.26;98919.02;101446;1279;138521;-71
2023/11/12 08:26:29;;;;;;;20.30;14.60;;;;;;;6.88;83.51;98917.39;101540;1282;113057;-72
2023/11/12 08:28:57;;;;;;;18.80;13.20;;;;;;;6.95;83.36;98917.80;101467;1282;107753;-72
2023/11/12 08:31:25;;;;;;;19.80;14.60;;;;;;;6.98;83.05;98918.36;101503;1280;138287;-72
2023/11/12 08:33:53;;;;;;;21.70;15.10;;;;;;;7.07;82.69;98916.27;101754;1282;107290;-70
2023/11/12 08:36:20;;;;;;;21.50;14.40;;;;;;;7.13;82.36;98919.85;101347;1280;138252;-72
2023/11/12 08:38:48;;;;;;;19.30;14.70;;;;;;;7.17;82.30;98926.09;101431;1282;112279;-74
2023/11/12 08:41:15;;;;;;;21.70;15.30;;;;;;;7.19;82.01;98929.46;101528;1286;107984;-72
2023/11/12 08:43:45;;;;;;;21.10;15.20;;;;;;;7.16;81.85;98932.52;101412;1279;138574;-73
2023/11/12 08:46:17;;;;;;;21.80;16.20;;;;;;;7.09;81.41;98935.56;101515;1282;109495;-73
2023/11/12 08:48:44;;;;;;;22.00;15.50;;;;;;;7.04;81.51;98935.77;101344;1282;138802;-75
2023/11/12 08:51:11;;;;;;;21.50;14.20;;;;;;;6.98;81.30;98938.38;101521;1282;111302;-72
2023/11/12 08:53:39;;;;;;;26.10;15.80;;;;;;;6.91;81.25;98936.95;101402;1280;109625;-73
2023/11/12 08:56:08;;;;;;;21.20;14.30;;;;;;;6.90;81.57;98938.01;101465;1282;138444;-72
2023/11/12 08:58:35;;;;;;;24.60;15.30;;;;;;;7.04;81.44;98936.80;101714;1282;107149;-73
2023/11/12 09:01:08;;;;;;;25.20;16.70;;;;;;;7.24;81.23;98940.51;101339;1280;138520;-74
2023/11/12 09:03:36;;;;;;;24.30;16.90;;;;;;;7.42;80.50;98936.70;102171;1280;111803;-73
2023/11/12 09:06:04;;;;;;;24.40;16.50;;;;;;;7.43;80.20;98938.71;101551;1283;138829;-73
2023/11/12 09:08:31;;;;;;;24.30;17.90;;;;;;;7.65;80.42;98937.97;101741;1280;97848;-73
2023/11/12 09:10:59;;;;;;;28.80;18.00;;;;;;;8.01;79.90;98940.98;100745;1282;1002686;-73
2023/11/12 09:13:26;;;;;;;26.50;17.50;;;;;;;8.38;79.32;98941.48;101340;1282;138119;-72
2023/11/12 09:15:54;;;;;;;23.70;16.60;;;;;;;8.67;78.45;98944.34;101409;1279;110530;-72
2023/11/12 09:18:22;;;;;;;23.80;17.60;;;;;;;8.91;77.87;98941.34;101103;1283;138094;-68
2023/11/12 09:20:52;;;;;;;25.30;17.70;;;;;;;9.26;77.21;98947.32;101689;1283;97886;-73
2023/11/12 09:23:19;;;;;;;26.50;18.50;;;;;;;9.54;76.13;98941.64;101286;1281;108409;-72
2023/11/12 09:25:49;;;;;;;27.00;19.10;;;;;;;9.62;75.36;98935.87;101205;1281;138051;-73
2023/11/12 09:28:16;;;;;;;24.50;19.10;;;;;;;9.76;74.32;98939.69;101408;1280;112151;-75
2023/11/12 09:30:43;;;;;;;25.40;18.90;;;;;;;9.98;74.20;98940.85;101382;1282;138022;-71
2023/11/12 09:33:26;;;;;;;22.30;16.80;;;;;;;10.21;73.58;98938.30;101371;1285;97853;-73
2023/11/12 09:35:53;;;;;;;23.90;17.00;;;;;;;10.47;72.91;98935.02;101420;1282;138650;-69
2023/11/12 09:38:21;;;;;;;22.80;16.80;;;;;;;10.81;72.39;98937.23;101483;1281;97807;-72
2023/11/12 09:40:48;;;;;;;24.90;17.10;;;;;;;11.19;71.93;98933.89;101419;1283;111948;-73
2023/11/12 09:43:17;;;;;;;21.60;16.40;;;;;;;11.47;70.77;98940.84;102032;1278;139787;-71
2023/11/12 09:45:49;;;;;;;19.70;16.00;;;;;;;11.38;69.04;98938.56;101743;1282;97832;-74
2023/11/12 09:48:30;;;;;;;20.40;16.70;;;;;;;11.30;68.81;98944.44;102382;1282;139750;-71
2023/11/12 09:50:58;;;;;;;21.60;17.30;;;;;;;11.10;68.36;98949.57;101511;1278;98223;-73
2023/11/12 09:53:27;;;;;;;24.00;19.50;;;;;;;10.96;68.41;98960.09;101476;1280;111900;-71
2023/11/12 09:55:57;;;;;;;27.10;20.50;;;;;;;10.80;68.51;98963.16;101308;1280;138135;-72
2023/11/12 09:58:24;;;;;;;24.00;19.50;;;;;;;10.51;67.81;98962.95;101468;1283;97714;-72
2023/11/12 10:00:55;;;;;;;23.90;19.10;;;;;;;10.15;67.60;98971.06;101264;1280;138956;-71
2023/11/12 10:03:23;;;;;;;22.80;18.20;;;;;;;9.87;67.98;98971.63;101402;1279;97833;-72
2023/11/12 10:05:51;;;;;;;21.10;17.70;;;;;;;9.53;68.67;98977.25;101632;1282;112232;-71
2023/11/12 10:08:20;;;;;;;20.20;17.10;;;;;;;9.23;68.91;98978.52;101453;1276;107835;-71
2023/11/12 10:10:47;;;;;;;23.10;18.50;;;;;;;9.00;69.05;98977.86;101511;1283;98294;-71
2023/11/12 10:13:15;;;;;;;21.00;17.70;;;;;;;8.72;69.04;98986.93;101366;1282;139407;-70
2023/11/12 10:15:42;;;;;;;19.90;16.10;;;;;;;8.39;69.40;98990.62;101484;1279;97937;-71
2023/11/12 10:18:11;;;;;;;21.90;18.10;;;;;;;8.10;69.85;98988.89;101370;1278;138783;-71
2023/11/12 10:20:41;;;;;;;22.40;17.40;;;;;;;7.84;70.82;98989.10;101393;1282;107939;-72
2023/11/12 10:23:19;;;;;;;19.30;15.90;;;;;;;7.69;71.61;98988.67;101500;1282;97788;-72
2023/11/12 10:25:59;;;;;;;18.90;15.30;;;;;;;7.44;71.75;98992.64;101516;1280;138541;-73
2023/11/12 10:28:35;;;;;;;20.20;15.50;;;;;;;7.27;72.61;98995.03;101538;1282;97855;-72
2023/11/12 10:31:02;;;;;;;22.70;17.30;;;;;;;7.21;73.23;98993.70;101482;1280;138066;-71
2023/11/12 10:33:30;;;;;;;22.70;17.40;;;;;;;7.19;73.77;98989.99;101537;1282;108338;-71
2023/11/12 10:36:07;;;;;;;21.80;17.10;;;;;;;7.21;74.11;98985.23;101304;1277;138130;-70
2023/11/12 10:38:48;;;;;;;25.00;18.60;;;;;;;7.41;74.69;98989.10;101368;1278;107457;-72
2023/11/12 10:41:15;;;;;;;25.50;19.30;;;;;;;7.60;74.57;98986.26;101544;1282;97745;-71
2023/11/12 10:43:58;;;;;;;27.80;19.30;;;;;;;7.78;74.54;98981.91;102607;1278;138461;-72
2023/11/12 10:46:26;;;;;;;31.70;22.10;;;;;;;7.80;73.36;98981.81;101465;1280;108032;-70
2023/11/12 10:48:56;;;;;;;27.50;19.50;;;;;;;7.82;73.49;98985.38;101761;1279;137885;-73
2023/11/12 10:51:25;;;;;;;30.10;21.20;;;;;;;7.89;73.56;98986.64;101364;1279;107450;-70
2023/11/12 10:53:57;;;;;;;33.20;23.10;;;;;;;7.85;73.43;98988.54;101345;1280;138096;-70
2023/11/12 10:56:25;;;;;;;33.40;24.00;;;;;;;7.77;73.24;98991.32;101677;1279;110377;-71
2023/11/12 10:58:55;;;;;;;33.30;23.10;;;;;;;7.68;73.43;98989.91;101482;1282;108608;-72
2023/11/12 11:01:23;;;;;;;37.60;24.10;;;;;;;7.62;73.53;98993.13;101313;1282;140046;-71
2023/11/12 11:03:54;;;;;;;33.60;23.20;;;;;;;7.60;73.74;98990.95;101414;1282;108078;-71
2023/11/12 11:06:23;;;;;;;33.10;24.60;;;;;;;7.68;74.15;98997.04;101286;1280;138514;-72
2023/11/12 11:08:51;;;;;;;36.00;25.80;;;;;;;7.72;74.47;98997.89;102306;1279;110361;-71
2023/11/12 11:11:21;;;;;;;36.60;26.70;;;;;;;7.81;74.38;98999.75;101440;1282;107501;-70
2023/11/12 11:13:48;;;;;;;37.00;25.30;;;;;;;8.02;74.76;99001.67;101365;1280;138298;-71
2023/11/12 11:16:47;;;;;;;36.00;26.00;;;;;;;8.26;74.50;98995.65;101910;1279;105807;-73
2023/11/12 11:19:14;;;;;;;38.10;27.70;;;;;;;8.38;73.67;98998.11;101539;1280;138867;-72
2023/11/12 11:21:42;;;;;;;38.50;28.70;;;;;;;8.35;73.64;99002.02;101438;1282;114178;-71